Hovedside
METAR-TAF:

METAR-TAF

Lufthavner :

Jamshedpur, India

breddegrad: 22-48-49N, lengdegrad: 086-10-05E, høyde over havet: 146 m

Gjeldene værobservasjon

Denne rapporten ble laget for 1 time og 35 minutter siden, klokken 00:00 UTC
Flau vind
Temperatur 28°C
Luftfuktighet 79%
Trykk 999 hPa
Sikt: 3500 m
Spredte skyer i en høyde av 2000 ft
Brutte skyer i en høyde av 10000 ft
dis,

METAR: VEJS 200000Z 00000KT 3500 HZ SCT020 BKN100 28/24 Q0999

Tid: 07:05 (01:35 UTC)

Varsel

Denne rapporten ble laget for 2 timer og 35 minutter siden, klokken 23:00 UTC
Varsel gyldig fra 20. klokken 00 UTC til 20. klokken 09 UTC
Vind 7 kt fra Vest
Sikt: 3000 m
Spredte skyer i en høyde av 1800 ft
Brutte skyer i en høyde av 9000 ft
lett regn, dis
Blir
fra 20. klokken 03 UTC til 20. klokken 05 UTC
Sikt: 5000 m
lett regn, dis,

TAF: VEJS 192300Z 2000/2009 27007KT 3000 -RA BR SCT018 BKN090 BECMG 2003/2005 5000 -RA HZ

Værobservasjoner og værvarsel for over 4000 flyplasser (METAR- og TAF-rapporter).

Tilgjengelige stasjoner er representert av de røde og gule prikkene på kartet.

Hold musepekeren over prikken for å se navnet på stasjonen.

Klikk så for å se værobservasjoner og -varsler.

For å forandre kartet kan du klikke på den grønne knappen med svart kryss for å zoome inn, på den grønne knappen med strek for å zoome ut, eller på de grønne pilene for å se tilstøtende kart.


METAR-TAF: